Whistle Wing V — WTT9201 — position and weather

sailwx.info

Track history (hours):
 
Tides and Currents Weather Stations Pressure Air Temp Water Temp Dewpoint Dewpoint Depression Visibility Wind Speed Wind Dir Waves Ship Positions

Whistle Wing V

Owner: CHASE, MICHAEL D, CORONADO, CA. More information available from US FCC via Universal Licensing System and Coast Guard Vessel Documentation Center.

Last reported at 2017-Oct-03 21:06 UTC. Time now 2017-Nov-20 00:29 UTC.
Position N 32°40' W 117°18'.
Warning: this ship's position is 47 days out of date.

Length 15 m.

Type: Sailing vessel. MMSI: 366904470.

Date/timePositionNaut miles runAvg speedWind from/ knotsBaromVisibWave heightAir tempDewpointWater temp
2017-Oct-03 21:06N 32°40' W 117°18'1 7.9
2017-Oct-03 21:00N 32°41' W 117°19'4 7.8
2017-Oct-03 20:30N 32°43' W 117°23'4 7.8
2017-Oct-03 20:00N 32°46' W 117°26'4 7.6
2017-Oct-03 19:30N 32°48' W 117°30'4 7.4
2017-Oct-03 19:00N 32°50' W 117°33'4 7.5
2017-Oct-03 18:30N 32°53' W 117°37'4 7.4
2017-Oct-03 18:00N 32°55' W 117°40'4 7.9
2017-Oct-03 17:30N 32°57' W 117°44'4 8.0
2017-Oct-03 17:00N 32°60' W 117°48'4 7.3
2017-Oct-03 16:27N 33°02' W 117°51'  
2017-Sep-29 20:25N 33°24' W 118°22'0 0.0
2017-Sep-29 19:49N 33°24' W 118°22'0 0.0
2017-Sep-29 19:25N 33°24' W 118°22'0 0.0
2017-Sep-29 13:49N 33°24' W 118°22'0 0.0
2017-Sep-29 13:07N 33°24' W 118°22'0 0.0
2017-Sep-29 12:55N 33°24' W 118°22'0 0.0
2017-Sep-29 12:25N 33°24' W 118°22'0 0.0
2017-Sep-29 11:55N 33°24' W 118°22'0 0.0
2017-Sep-29 09:37N 33°24' W 118°22'0 0.0
2017-Sep-29 09:28N 33°24' W 118°22'0 0.0
2017-Sep-29 08:55N 33°24' W 118°22'0 0.0
2017-Sep-29 08:25N 33°24' W 118°22'0 0.0
2017-Sep-29 07:58N 33°24' W 118°22'0 0.0
2017-Sep-29 07:25N 33°24' W 118°22'0 0.0
2017-Sep-29 06:58N 33°24' W 118°22'0 0.0
2017-Sep-29 06:22N 33°24' W 118°22'0 0.0
2017-Sep-29 05:58N 33°24' W 118°22'0 0.1
2017-Sep-29 05:25N 33°24' W 118°22'0 0.1
2017-Sep-29 03:25N 33°24' W 118°22'0 0.0
2017-Sep-29 02:55N 33°24' W 118°22'0 0.0
2017-Sep-29 02:25N 33°24' W 118°22'0 0.0
2017-Sep-29 00:37N 33°24' W 118°22'0 0.0
2017-Sep-28 23:19N 33°24' W 118°22'0 0.0
2017-Sep-28 22:58N 33°24' W 118°22'0 0.0
2017-Sep-28 22:25N 33°24' W 118°22'0 0.0
2017-Sep-28 18:19N 33°24' W 118°22'0 0.0
2017-Sep-28 17:55N 33°24' W 118°22'0 0.0
2017-Sep-28 13:13N 33°24' W 118°22'0 0.0
2017-Sep-28 12:58N 33°24' W 118°22'0 0.0
2017-Sep-28 10:43N 33°24' W 118°22'0 0.0
2017-Sep-28 10:13N 33°24' W 118°22'0 0.0
2017-Sep-28 09:01N 33°24' W 118°22'0 0.0
2017-Sep-28 08:55N 33°24' W 118°22'0 0.0
2017-Sep-28 08:10N 33°24' W 118°22'0 0.0
2017-Sep-28 06:52N 33°24' W 118°22'0 0.0
2017-Sep-28 06:25N 33°24' W 118°22'0 0.0
2017-Sep-28 05:58N 33°24' W 118°22'0 0.0
2017-Sep-28 05:28N 33°24' W 118°22'0 0.0
2017-Sep-28 04:55N 33°24' W 118°22'0 0.0
2017-Sep-28 03:43N 33°24' W 118°22'0 0.0
2017-Sep-28 01:34N 33°24' W 118°22'0 0.1
2017-Sep-28 01:28N 33°24' W 118°22'0 0.0
2017-Sep-27 10:34N 33°24' W 118°22'0 0.1
2017-Sep-27 10:28N 33°24' W 118°22'0 0.0
2017-Sep-27 09:55N 33°24' W 118°22'0 0.0
2017-Sep-27 09:28N 33°24' W 118°22'0 0.0
2017-Sep-27 06:43N 33°24' W 118°22'0 0.0
2017-Sep-27 06:25N 33°24' W 118°22'0 0.0
2017-Sep-27 05:58N 33°24' W 118°22'0 0.0
2017-Sep-26 14:49N 33°24' W 118°22'0 0.0
2017-Sep-25 16:07N 33°24' W 118°22'0 0.0
2017-Sep-25 15:49N 33°24' W 118°22'0 0.0
2017-Sep-25 13:55N 33°24' W 118°22'0 0.0
2017-Sep-25 13:25N 33°24' W 118°22'0 0.0
2017-Sep-24 04:01N 33°24' W 118°22'  
Track history (hours):
 
Tides and Currents Weather Stations Pressure Air Temp Water Temp Dewpoint Dewpoint Depression Visibility Wind Speed Wind Dir Waves Ship Positions

Whistle Wing V

Owner: CHASE, MICHAEL D, CORONADO, CA. More information available from US FCC via Universal Licensing System and Coast Guard Vessel Documentation Center.

Last reported at 2017-Oct-03 21:06 UTC. Time now 2017-Nov-20 00:29 UTC.
Position N 32°40' W 117°18'.
Warning: this ship's position is 47 days out of date.

Length 15 m.

Type: Sailing vessel. MMSI: 366904470.

Date/timePositionNaut miles runAvg speedWind from/ knotsBaromVisibWave heightAir tempDewpointWater temp
2017-Oct-03 21:06N 32°40' W 117°18'1 7.9
2017-Oct-03 21:00N 32°41' W 117°19'4 7.8
2017-Oct-03 20:30N 32°43' W 117°23'4 7.8
2017-Oct-03 20:00N 32°46' W 117°26'4 7.6
2017-Oct-03 19:30N 32°48' W 117°30'4 7.4
2017-Oct-03 19:00N 32°50' W 117°33'4 7.5
2017-Oct-03 18:30N 32°53' W 117°37'4 7.4
2017-Oct-03 18:00N 32°55' W 117°40'4 7.9
2017-Oct-03 17:30N 32°57' W 117°44'4 8.0
2017-Oct-03 17:00N 32°60' W 117°48'4 7.3
2017-Oct-03 16:27N 33°02' W 117°51'  
2017-Sep-29 20:25N 33°24' W 118°22'0 0.0
2017-Sep-29 19:49N 33°24' W 118°22'0 0.0
2017-Sep-29 19:25N 33°24' W 118°22'0 0.0
2017-Sep-29 13:49N 33°24' W 118°22'0 0.0
2017-Sep-29 13:07N 33°24' W 118°22'0 0.0
2017-Sep-29 12:55N 33°24' W 118°22'0 0.0
2017-Sep-29 12:25N 33°24' W 118°22'0 0.0
2017-Sep-29 11:55N 33°24' W 118°22'0 0.0
2017-Sep-29 09:37N 33°24' W 118°22'0 0.0
2017-Sep-29 09:28N 33°24' W 118°22'0 0.0
2017-Sep-29 08:55N 33°24' W 118°22'0 0.0
2017-Sep-29 08:25N 33°24' W 118°22'0 0.0
2017-Sep-29 07:58N 33°24' W 118°22'0 0.0
2017-Sep-29 07:25N 33°24' W 118°22'0 0.0
2017-Sep-29 06:58N 33°24' W 118°22'0 0.0
2017-Sep-29 06:22N 33°24' W 118°22'0 0.0
2017-Sep-29 05:58N 33°24' W 118°22'0 0.1
2017-Sep-29 05:25N 33°24' W 118°22'0 0.1
2017-Sep-29 03:25N 33°24' W 118°22'0 0.0
2017-Sep-29 02:55N 33°24' W 118°22'0 0.0
2017-Sep-29 02:25N 33°24' W 118°22'0 0.0
2017-Sep-29 00:37N 33°24' W 118°22'0 0.0
2017-Sep-28 23:19N 33°24' W 118°22'0 0.0
2017-Sep-28 22:58N 33°24' W 118°22'0 0.0
2017-Sep-28 22:25N 33°24' W 118°22'0 0.0
2017-Sep-28 18:19N 33°24' W 118°22'0 0.0
2017-Sep-28 17:55N 33°24' W 118°22'0 0.0
2017-Sep-28 13:13N 33°24' W 118°22'0 0.0
2017-Sep-28 12:58N 33°24' W 118°22'0 0.0
2017-Sep-28 10:43N 33°24' W 118°22'0 0.0
2017-Sep-28 10:13N 33°24' W 118°22'0 0.0
2017-Sep-28 09:01N 33°24' W 118°22'0 0.0
2017-Sep-28 08:55N 33°24' W 118°22'0 0.0
2017-Sep-28 08:10N 33°24' W 118°22'0 0.0
2017-Sep-28 06:52N 33°24' W 118°22'0 0.0
2017-Sep-28 06:25N 33°24' W 118°22'0 0.0
2017-Sep-28 05:58N 33°24' W 118°22'0 0.0
2017-Sep-28 05:28N 33°24' W 118°22'0 0.0
2017-Sep-28 04:55N 33°24' W 118°22'0 0.0
2017-Sep-28 03:43N 33°24' W 118°22'0 0.0
2017-Sep-28 01:34N 33°24' W 118°22'0 0.1
2017-Sep-28 01:28N 33°24' W 118°22'0 0.0
2017-Sep-27 10:34N 33°24' W 118°22'0 0.1
2017-Sep-27 10:28N 33°24' W 118°22'0 0.0
2017-Sep-27 09:55N 33°24' W 118°22'0 0.0
2017-Sep-27 09:28N 33°24' W 118°22'0 0.0
2017-Sep-27 06:43N 33°24' W 118°22'0 0.0
2017-Sep-27 06:25N 33°24' W 118°22'0 0.0
2017-Sep-27 05:58N 33°24' W 118°22'0 0.0
2017-Sep-26 14:49N 33°24' W 118°22'0 0.0
2017-Sep-25 16:07N 33°24' W 118°22'0 0.0
2017-Sep-25 15:49N 33°24' W 118°22'0 0.0
2017-Sep-25 13:55N 33°24' W 118°22'0 0.0
2017-Sep-25 13:25N 33°24' W 118°22'0 0.0
2017-Sep-24 04:01N 33°24' W 118°22'  

Dump ship's entire track history